sensor_id;sensor_type;location;lat;lon;timestamp;P1;durP1;ratioP1;P2;durP2;ratioP2
78209;SDS011;67485;48.816;9.930;2023-12-07T00:01:53;15.07;;;7.57;;
78209;SDS011;67485;48.816;9.930;2023-12-07T00:04:18;12.63;;;6.87;;
78209;SDS011;67485;48.816;9.930;2023-12-07T00:06:44;10.90;;;6.33;;
78209;SDS011;67485;48.816;9.930;2023-12-07T00:09:09;11.13;;;6.20;;
78209;SDS011;67485;48.816;9.930;2023-12-07T00:11:35;12.53;;;6.67;;
78209;SDS011;67485;48.816;9.930;2023-12-07T00:14:01;12.15;;;6.63;;
78209;SDS011;67485;48.816;9.930;2023-12-07T00:16:27;14.93;;;6.78;;
78209;SDS011;67485;48.816;9.930;2023-12-07T00:18:53;11.70;;;6.43;;
78209;SDS011;67485;48.816;9.930;2023-12-07T00:21:18;13.47;;;6.67;;
78209;SDS011;67485;48.816;9.930;2023-12-07T00:23:44;10.50;;;6.55;;
78209;SDS011;67485;48.816;9.930;2023-12-07T00:26:09;11.13;;;6.47;;
78209;SDS011;67485;48.816;9.930;2023-12-07T00:28:36;12.18;;;6.75;;
78209;SDS011;67485;48.816;9.930;2023-12-07T00:31:02;12.63;;;5.70;;
78209;SDS011;67485;48.816;9.930;2023-12-07T00:33:27;12.68;;;6.15;;
78209;SDS011;67485;48.816;9.930;2023-12-07T00:35:53;9.80;;;5.50;;
78209;SDS011;67485;48.816;9.930;2023-12-07T00:38:18;8.60;;;5.25;;
78209;SDS011;67485;48.816;9.930;2023-12-07T00:40:46;10.20;;;5.28;;
78209;SDS011;67485;48.816;9.930;2023-12-07T00:43:12;10.27;;;5.50;;
78209;SDS011;67485;48.816;9.930;2023-12-07T00:45:37;10.43;;;5.65;;
78209;SDS011;67485;48.816;9.930;2023-12-07T00:48:04;9.43;;;5.10;;
78209;SDS011;67485;48.816;9.930;2023-12-07T00:50:30;8.63;;;5.07;;
78209;SDS011;67485;48.816;9.930;2023-12-07T00:52:55;10.37;;;5.23;;
78209;SDS011;67485;48.816;9.930;2023-12-07T00:55:21;12.05;;;5.22;;
78209;SDS011;67485;48.816;9.930;2023-12-07T00:57:47;9.65;;;4.80;;
78209;SDS011;67485;48.816;9.930;2023-12-07T01:00:13;10.00;;;5.40;;
78209;SDS011;67485;48.816;9.930;2023-12-07T01:02:39;8.43;;;5.00;;
78209;SDS011;67485;48.816;9.930;2023-12-07T01:05:05;9.73;;;5.20;;
78209;SDS011;67485;48.816;9.930;2023-12-07T01:07:31;9.43;;;5.37;;
78209;SDS011;67485;48.816;9.930;2023-12-07T01:09:56;8.90;;;4.72;;
78209;SDS011;67485;48.816;9.930;2023-12-07T01:12:22;10.43;;;4.93;;
78209;SDS011;67485;48.816;9.930;2023-12-07T01:14:48;12.75;;;6.40;;
78209;SDS011;67485;48.816;9.930;2023-12-07T01:17:13;9.03;;;4.97;;
78209;SDS011;67485;48.816;9.930;2023-12-07T01:19:39;9.57;;;4.78;;
78209;SDS011;67485;48.816;9.930;2023-12-07T01:22:05;8.60;;;5.20;;
78209;SDS011;67485;48.816;9.930;2023-12-07T01:24:30;8.68;;;5.13;;
78209;SDS011;67485;48.816;9.930;2023-12-07T01:26:56;9.03;;;5.30;;
78209;SDS011;67485;48.816;9.930;2023-12-07T01:29:22;11.10;;;5.63;;
78209;SDS011;67485;48.816;9.930;2023-12-07T01:31:47;8.32;;;4.72;;
78209;SDS011;67485;48.816;9.930;2023-12-07T01:34:13;10.82;;;5.35;;
78209;SDS011;67485;48.816;9.930;2023-12-07T01:36:40;8.60;;;4.60;;
78209;SDS011;67485;48.816;9.930;2023-12-07T01:39:06;9.75;;;4.63;;
78209;SDS011;67485;48.816;9.930;2023-12-07T01:41:33;8.07;;;4.80;;
78209;SDS011;67485;48.816;9.930;2023-12-07T01:43:59;9.07;;;4.83;;
78209;SDS011;67485;48.816;9.930;2023-12-07T01:46:24;11.77;;;5.90;;
78209;SDS011;67485;48.816;9.930;2023-12-07T01:48:50;10.73;;;5.57;;
78209;SDS011;67485;48.816;9.930;2023-12-07T01:51:16;10.70;;;5.97;;
78209;SDS011;67485;48.816;9.930;2023-12-07T01:53:44;12.48;;;6.13;;
78209;SDS011;67485;48.816;9.930;2023-12-07T01:56:10;10.45;;;6.32;;
78209;SDS011;67485;48.816;9.930;2023-12-07T01:58:37;9.88;;;5.78;;
78209;SDS011;67485;48.816;9.930;2023-12-07T02:01:03;11.98;;;6.32;;
78209;SDS011;67485;48.816;9.930;2023-12-07T02:03:30;9.82;;;5.68;;
78209;SDS011;67485;48.816;9.930;2023-12-07T02:05:57;8.85;;;5.07;;
78209;SDS011;67485;48.816;9.930;2023-12-07T02:08:24;9.75;;;4.95;;
78209;SDS011;67485;48.816;9.930;2023-12-07T02:10:50;9.85;;;5.25;;
78209;SDS011;67485;48.816;9.930;2023-12-07T02:13:18;8.32;;;5.18;;
78209;SDS011;67485;48.816;9.930;2023-12-07T02:15:45;9.65;;;4.60;;
78209;SDS011;67485;48.816;9.930;2023-12-07T02:18:15;9.82;;;5.25;;
78209;SDS011;67485;48.816;9.930;2023-12-07T02:20:49;9.60;;;5.20;;
78209;SDS011;67485;48.816;9.930;2023-12-07T02:23:54;9.60;;;5.15;;
78209;SDS011;67485;48.816;9.930;2023-12-07T02:26:20;8.97;;;5.40;;
78209;SDS011;67485;48.816;9.930;2023-12-07T02:28:47;9.55;;;5.47;;
78209;SDS011;67485;48.816;9.930;2023-12-07T02:31:13;7.97;;;5.10;;
78209;SDS011;67485;48.816;9.930;2023-12-07T02:33:39;8.93;;;5.00;;
78209;SDS011;67485;48.816;9.930;2023-12-07T02:36:04;8.68;;;5.45;;
78209;SDS011;67485;48.816;9.930;2023-12-07T02:38:30;11.15;;;6.45;;
78209;SDS011;67485;48.816;9.930;2023-12-07T02:40:57;10.73;;;6.00;;
78209;SDS011;67485;48.816;9.930;2023-12-07T02:43:24;12.90;;;5.93;;
78209;SDS011;67485;48.816;9.930;2023-12-07T02:45:50;10.20;;;5.85;;
78209;SDS011;67485;48.816;9.930;2023-12-07T02:48:16;15.00;;;6.72;;
78209;SDS011;67485;48.816;9.930;2023-12-07T02:50:45;11.30;;;6.47;;
78209;SDS011;67485;48.816;9.930;2023-12-07T02:53:11;12.53;;;6.40;;
78209;SDS011;67485;48.816;9.930;2023-12-07T02:55:36;10.53;;;6.10;;
78209;SDS011;67485;48.816;9.930;2023-12-07T02:58:03;11.85;;;6.53;;
78209;SDS011;67485;48.816;9.930;2023-12-07T03:00:29;13.45;;;6.18;;
78209;SDS011;67485;48.816;9.930;2023-12-07T03:02:54;11.53;;;6.03;;
78209;SDS011;67485;48.816;9.930;2023-12-07T03:05:20;13.67;;;6.60;;
78209;SDS011;67485;48.816;9.930;2023-12-07T03:07:48;10.77;;;5.63;;
78209;SDS011;67485;48.816;9.930;2023-12-07T03:10:14;9.70;;;5.63;;
78209;SDS011;67485;48.816;9.930;2023-12-07T03:12:39;9.77;;;5.83;;
78209;SDS011;67485;48.816;9.930;2023-12-07T03:15:05;11.85;;;6.00;;
78209;SDS011;67485;48.816;9.930;2023-12-07T03:17:31;11.60;;;5.67;;
78209;SDS011;67485;48.816;9.930;2023-12-07T03:19:56;10.43;;;5.80;;
78209;SDS011;67485;48.816;9.930;2023-12-07T03:22:22;11.17;;;5.83;;
78209;SDS011;67485;48.816;9.930;2023-12-07T03:24:50;10.35;;;5.55;;
78209;SDS011;67485;48.816;9.930;2023-12-07T03:27:16;9.35;;;5.57;;
78209;SDS011;67485;48.816;9.930;2023-12-07T03:29:42;8.77;;;5.60;;
78209;SDS011;67485;48.816;9.930;2023-12-07T03:32:08;11.32;;;5.80;;
78209;SDS011;67485;48.816;9.930;2023-12-07T03:34:34;10.30;;;4.97;;
78209;SDS011;67485;48.816;9.930;2023-12-07T03:36:59;10.07;;;5.22;;
78209;SDS011;67485;48.816;9.930;2023-12-07T03:39:25;7.70;;;4.97;;
78209;SDS011;67485;48.816;9.930;2023-12-07T03:41:51;9.18;;;4.65;;
78209;SDS011;67485;48.816;9.930;2023-12-07T03:44:17;8.00;;;4.45;;
78209;SDS011;67485;48.816;9.930;2023-12-07T03:46:43;10.50;;;5.07;;
78209;SDS011;67485;48.816;9.930;2023-12-07T03:49:09;8.18;;;4.72;;
78209;SDS011;67485;48.816;9.930;2023-12-07T03:51:34;8.57;;;4.57;;
78209;SDS011;67485;48.816;9.930;2023-12-07T03:54:02;8.32;;;4.55;;
78209;SDS011;67485;48.816;9.930;2023-12-07T03:56:29;10.98;;;4.53;;
78209;SDS011;67485;48.816;9.930;2023-12-07T03:58:55;7.13;;;4.30;;
78209;SDS011;67485;48.816;9.930;2023-12-07T04:01:25;10.57;;;4.68;;
78209;SDS011;67485;48.816;9.930;2023-12-07T04:03:53;7.32;;;4.50;;
78209;SDS011;67485;48.816;9.930;2023-12-07T04:06:20;8.65;;;4.53;;
78209;SDS011;67485;48.816;9.930;2023-12-07T04:08:47;9.48;;;4.85;;
78209;SDS011;67485;48.816;9.930;2023-12-07T04:11:13;7.33;;;4.47;;
78209;SDS011;67485;48.816;9.930;2023-12-07T04:13:39;7.65;;;4.50;;
78209;SDS011;67485;48.816;9.930;2023-12-07T04:16:06;10.43;;;5.30;;
78209;SDS011;67485;48.816;9.930;2023-12-07T04:18:32;9.83;;;4.83;;
78209;SDS011;67485;48.816;9.930;2023-12-07T04:20:57;10.25;;;5.82;;
78209;SDS011;67485;48.816;9.930;2023-12-07T04:23:23;9.63;;;5.87;;
78209;SDS011;67485;48.816;9.930;2023-12-07T04:25:48;10.20;;;5.88;;
78209;SDS011;67485;48.816;9.930;2023-12-07T04:28:14;10.93;;;5.17;;
78209;SDS011;67485;48.816;9.930;2023-12-07T04:30:40;8.13;;;4.68;;
78209;SDS011;67485;48.816;9.930;2023-12-07T04:33:05;7.80;;;4.73;;
78209;SDS011;67485;48.816;9.930;2023-12-07T04:35:31;7.65;;;4.55;;
78209;SDS011;67485;48.816;9.930;2023-12-07T04:37:57;8.57;;;4.90;;
78209;SDS011;67485;48.816;9.930;2023-12-07T04:40:24;10.50;;;5.15;;
78209;SDS011;67485;48.816;9.930;2023-12-07T04:42:50;10.98;;;5.30;;
78209;SDS011;67485;48.816;9.930;2023-12-07T04:45:16;10.13;;;6.23;;
78209;SDS011;67485;48.816;9.930;2023-12-07T04:47:42;9.43;;;5.53;;
78209;SDS011;67485;48.816;9.930;2023-12-07T04:50:07;9.10;;;5.07;;
78209;SDS011;67485;48.816;9.930;2023-12-07T04:52:35;9.10;;;5.20;;
78209;SDS011;67485;48.816;9.930;2023-12-07T04:55:01;12.18;;;5.97;;
78209;SDS011;67485;48.816;9.930;2023-12-07T04:57:27;12.75;;;6.22;;
78209;SDS011;67485;48.816;9.930;2023-12-07T04:59:52;12.17;;;5.90;;
78209;SDS011;67485;48.816;9.930;2023-12-07T05:02:18;12.45;;;6.00;;
78209;SDS011;67485;48.816;9.930;2023-12-07T05:04:44;11.57;;;5.70;;
78209;SDS011;67485;48.816;9.930;2023-12-07T05:07:13;11.93;;;6.00;;
78209;SDS011;67485;48.816;9.930;2023-12-07T05:09:39;11.18;;;5.60;;
78209;SDS011;67485;48.816;9.930;2023-12-07T05:12:06;11.50;;;6.07;;
78209;SDS011;67485;48.816;9.930;2023-12-07T05:14:31;14.30;;;6.63;;
78209;SDS011;67485;48.816;9.930;2023-12-07T05:16:58;12.52;;;6.82;;
78209;SDS011;67485;48.816;9.930;2023-12-07T05:19:24;11.27;;;6.10;;
78209;SDS011;67485;48.816;9.930;2023-12-07T05:21:53;10.70;;;5.80;;
78209;SDS011;67485;48.816;9.930;2023-12-07T05:24:18;10.85;;;5.78;;
78209;SDS011;67485;48.816;9.930;2023-12-07T05:26:45;15.23;;;6.75;;
78209;SDS011;67485;48.816;9.930;2023-12-07T05:29:12;10.00;;;6.05;;
78209;SDS011;67485;48.816;9.930;2023-12-07T05:31:38;12.32;;;6.63;;
78209;SDS011;67485;48.816;9.930;2023-12-07T05:34:04;10.73;;;6.22;;
78209;SDS011;67485;48.816;9.930;2023-12-07T05:36:30;10.80;;;5.65;;
78209;SDS011;67485;48.816;9.930;2023-12-07T05:38:56;10.32;;;5.63;;
78209;SDS011;67485;48.816;9.930;2023-12-07T05:41:22;10.60;;;5.10;;
78209;SDS011;67485;48.816;9.930;2023-12-07T05:43:48;9.63;;;5.45;;
78209;SDS011;67485;48.816;9.930;2023-12-07T05:46:14;12.73;;;5.93;;
78209;SDS011;67485;48.816;9.930;2023-12-07T05:48:40;10.15;;;5.32;;
78209;SDS011;67485;48.816;9.930;2023-12-07T05:51:05;8.93;;;5.33;;
78209;SDS011;67485;48.816;9.930;2023-12-07T05:53:31;10.23;;;5.75;;
78209;SDS011;67485;48.816;9.930;2023-12-07T05:55:58;13.95;;;6.72;;
78209;SDS011;67485;48.816;9.930;2023-12-07T05:58:24;10.63;;;6.63;;
78209;SDS011;67485;48.816;9.930;2023-12-07T06:00:50;14.53;;;8.37;;
78209;SDS011;67485;48.816;9.930;2023-12-07T06:03:15;14.15;;;7.43;;
78209;SDS011;67485;48.816;9.930;2023-12-07T06:05:41;11.57;;;6.90;;
78209;SDS011;67485;48.816;9.930;2023-12-07T06:08:07;11.02;;;6.65;;
78209;SDS011;67485;48.816;9.930;2023-12-07T06:10:33;11.70;;;6.72;;
78209;SDS011;67485;48.816;9.930;2023-12-07T06:12:59;11.13;;;6.28;;
78209;SDS011;67485;48.816;9.930;2023-12-07T06:15:29;10.70;;;6.18;;
78209;SDS011;67485;48.816;9.930;2023-12-07T06:17:55;12.10;;;6.17;;
78209;SDS011;67485;48.816;9.930;2023-12-07T06:20:22;21.15;;;10.20;;
78209;SDS011;67485;48.816;9.930;2023-12-07T06:22:48;14.40;;;7.13;;
78209;SDS011;67485;48.816;9.930;2023-12-07T06:25:13;9.57;;;5.90;;
78209;SDS011;67485;48.816;9.930;2023-12-07T06:27:40;12.23;;;6.80;;
78209;SDS011;67485;48.816;9.930;2023-12-07T06:30:06;10.53;;;5.30;;
78209;SDS011;67485;48.816;9.930;2023-12-07T06:32:32;10.65;;;5.38;;
78209;SDS011;67485;48.816;9.930;2023-12-07T06:34:58;11.07;;;5.90;;
78209;SDS011;67485;48.816;9.930;2023-12-07T06:37:24;11.10;;;5.82;;
78209;SDS011;67485;48.816;9.930;2023-12-07T06:39:50;10.60;;;6.30;;
78209;SDS011;67485;48.816;9.930;2023-12-07T06:42:15;10.32;;;6.18;;
78209;SDS011;67485;48.816;9.930;2023-12-07T06:44:50;10.05;;;5.45;;
78209;SDS011;67485;48.816;9.930;2023-12-07T06:47:16;11.95;;;6.25;;
78209;SDS011;67485;48.816;9.930;2023-12-07T06:49:42;14.53;;;6.83;;
78209;SDS011;67485;48.816;9.930;2023-12-07T06:52:08;12.32;;;6.22;;
78209;SDS011;67485;48.816;9.930;2023-12-07T06:54:34;9.83;;;5.33;;
78209;SDS011;67485;48.816;9.930;2023-12-07T06:56:59;10.40;;;5.18;;
78209;SDS011;67485;48.816;9.930;2023-12-07T06:59:25;10.23;;;5.43;;
78209;SDS011;67485;48.816;9.930;2023-12-07T07:01:51;11.25;;;6.20;;
78209;SDS011;67485;48.816;9.930;2023-12-07T07:04:16;12.80;;;6.47;;
78209;SDS011;67485;48.816;9.930;2023-12-07T07:06:42;11.27;;;6.18;;
78209;SDS011;67485;48.816;9.930;2023-12-07T07:09:08;11.57;;;6.27;;
78209;SDS011;67485;48.816;9.930;2023-12-07T07:11:33;14.88;;;7.00;;
78209;SDS011;67485;48.816;9.930;2023-12-07T07:14:00;17.45;;;7.70;;
78209;SDS011;67485;48.816;9.930;2023-12-07T07:16:26;14.80;;;7.97;;
78209;SDS011;67485;48.816;9.930;2023-12-07T07:18:52;13.25;;;7.65;;
78209;SDS011;67485;48.816;9.930;2023-12-07T07:21:17;24.80;;;13.00;;
78209;SDS011;67485;48.816;9.930;2023-12-07T07:23:45;23.00;;;10.38;;
78209;SDS011;67485;48.816;9.930;2023-12-07T07:26:11;13.38;;;7.60;;
78209;SDS011;67485;48.816;9.930;2023-12-07T07:28:36;16.90;;;7.60;;
78209;SDS011;67485;48.816;9.930;2023-12-07T07:31:02;12.73;;;6.78;;
78209;SDS011;67485;48.816;9.930;2023-12-07T07:33:28;10.27;;;6.13;;
78209;SDS011;67485;48.816;9.930;2023-12-07T07:35:53;13.57;;;6.88;;
78209;SDS011;67485;48.816;9.930;2023-12-07T07:38:20;11.77;;;6.40;;
78209;SDS011;67485;48.816;9.930;2023-12-07T07:40:46;13.57;;;6.53;;
78209;SDS011;67485;48.816;9.930;2023-12-07T07:43:14;12.38;;;6.68;;
78209;SDS011;67485;48.816;9.930;2023-12-07T07:45:39;13.70;;;6.33;;
78209;SDS011;67485;48.816;9.930;2023-12-07T07:48:05;10.75;;;6.20;;
78209;SDS011;67485;48.816;9.930;2023-12-07T07:50:30;12.43;;;6.05;;
78209;SDS011;67485;48.816;9.930;2023-12-07T07:52:56;11.67;;;6.33;;
78209;SDS011;67485;48.816;9.930;2023-12-07T07:55:22;10.45;;;5.95;;
78209;SDS011;67485;48.816;9.930;2023-12-07T07:57:50;14.32;;;6.65;;
78209;SDS011;67485;48.816;9.930;2023-12-07T08:00:16;14.23;;;6.03;;
78209;SDS011;67485;48.816;9.930;2023-12-07T08:02:43;12.18;;;6.30;;
78209;SDS011;67485;48.816;9.930;2023-12-07T08:05:08;13.10;;;6.80;;
78209;SDS011;67485;48.816;9.930;2023-12-07T08:07:34;12.65;;;6.60;;
78209;SDS011;67485;48.816;9.930;2023-12-07T08:10:00;11.10;;;6.73;;
78209;SDS011;67485;48.816;9.930;2023-12-07T08:12:25;10.48;;;6.45;;
78209;SDS011;67485;48.816;9.930;2023-12-07T08:14:51;10.37;;;6.20;;
78209;SDS011;67485;48.816;9.930;2023-12-07T08:17:17;10.20;;;5.82;;
78209;SDS011;67485;48.816;9.930;2023-12-07T08:19:44;10.85;;;5.00;;
78209;SDS011;67485;48.816;9.930;2023-12-07T08:22:10;9.53;;;5.10;;
78209;SDS011;67485;48.816;9.930;2023-12-07T08:24:36;11.25;;;5.10;;
78209;SDS011;67485;48.816;9.930;2023-12-07T08:27:04;8.73;;;5.27;;
78209;SDS011;67485;48.816;9.930;2023-12-07T08:29:30;10.32;;;5.65;;
78209;SDS011;67485;48.816;9.930;2023-12-07T08:31:56;11.65;;;5.93;;
78209;SDS011;67485;48.816;9.930;2023-12-07T08:34:21;11.63;;;6.60;;
78209;SDS011;67485;48.816;9.930;2023-12-07T08:36:47;12.15;;;6.10;;
78209;SDS011;67485;48.816;9.930;2023-12-07T08:39:13;10.80;;;5.87;;
78209;SDS011;67485;48.816;9.930;2023-12-07T08:41:38;12.35;;;6.15;;
78209;SDS011;67485;48.816;9.930;2023-12-07T08:44:04;9.77;;;5.70;;
78209;SDS011;67485;48.816;9.930;2023-12-07T08:46:30;14.82;;;5.53;;
78209;SDS011;67485;48.816;9.930;2023-12-07T08:48:56;13.77;;;5.47;;
78209;SDS011;67485;48.816;9.930;2023-12-07T08:51:22;14.65;;;6.35;;
78209;SDS011;67485;48.816;9.930;2023-12-07T08:53:49;11.07;;;5.60;;
78209;SDS011;67485;48.816;9.930;2023-12-07T08:56:17;12.27;;;5.78;;
78209;SDS011;67485;48.816;9.930;2023-12-07T08:58:43;10.97;;;5.73;;
78209;SDS011;67485;48.816;9.930;2023-12-07T09:01:09;12.75;;;5.50;;
78209;SDS011;67485;48.816;9.930;2023-12-07T09:03:36;10.38;;;5.00;;
78209;SDS011;67485;48.816;9.930;2023-12-07T09:06:02;8.38;;;4.65;;
78209;SDS011;67485;48.816;9.930;2023-12-07T09:08:29;8.93;;;4.85;;
78209;SDS011;67485;48.816;9.930;2023-12-07T09:10:55;8.87;;;4.63;;
78209;SDS011;67485;48.816;9.930;2023-12-07T09:13:20;8.40;;;4.67;;
78209;SDS011;67485;48.816;9.930;2023-12-07T09:15:46;11.43;;;4.93;;
78209;SDS011;67485;48.816;9.930;2023-12-07T09:18:12;8.47;;;4.20;;
78209;SDS011;67485;48.816;9.930;2023-12-07T09:20:39;9.82;;;5.25;;
78209;SDS011;67485;48.816;9.930;2023-12-07T09:23:14;11.40;;;5.00;;
78209;SDS011;67485;48.816;9.930;2023-12-07T09:25:43;9.40;;;4.83;;
78209;SDS011;67485;48.816;9.930;2023-12-07T09:28:09;8.13;;;4.13;;
78209;SDS011;67485;48.816;9.930;2023-12-07T09:30:34;7.25;;;4.00;;
78209;SDS011;67485;48.816;9.930;2023-12-07T09:33:00;8.13;;;4.30;;
78209;SDS011;67485;48.816;9.930;2023-12-07T09:35:28;8.15;;;3.97;;
78209;SDS011;67485;48.816;9.930;2023-12-07T09:37:53;9.23;;;4.80;;
78209;SDS011;67485;48.816;9.930;2023-12-07T09:40:20;7.70;;;4.30;;
78209;SDS011;67485;48.816;9.930;2023-12-07T09:42:47;7.22;;;4.38;;
78209;SDS011;67485;48.816;9.930;2023-12-07T09:45:14;10.15;;;5.15;;
78209;SDS011;67485;48.816;9.930;2023-12-07T09:47:43;6.77;;;4.17;;
78209;SDS011;67485;48.816;9.930;2023-12-07T09:50:13;10.05;;;4.32;;
78209;SDS011;67485;48.816;9.930;2023-12-07T09:52:41;7.38;;;4.15;;
78209;SDS011;67485;48.816;9.930;2023-12-07T09:55:07;9.77;;;4.30;;
78209;SDS011;67485;48.816;9.930;2023-12-07T09:57:35;7.57;;;4.30;;
78209;SDS011;67485;48.816;9.930;2023-12-07T10:00:03;7.23;;;3.73;;
78209;SDS011;67485;48.816;9.930;2023-12-07T10:02:32;9.35;;;4.20;;
78209;SDS011;67485;48.816;9.930;2023-12-07T10:05:03;7.78;;;3.97;;
78209;SDS011;67485;48.816;9.930;2023-12-07T10:07:37;9.50;;;3.92;;
78209;SDS011;67485;48.816;9.930;2023-12-07T10:10:05;6.97;;;4.10;;
78209;SDS011;67485;48.816;9.930;2023-12-07T10:12:31;7.80;;;3.77;;
78209;SDS011;67485;48.816;9.930;2023-12-07T10:15:01;5.93;;;3.75;;
78209;SDS011;67485;48.816;9.930;2023-12-07T10:17:49;9.18;;;3.95;;
78209;SDS011;67485;48.816;9.930;2023-12-07T10:20:17;7.85;;;3.88;;
78209;SDS011;67485;48.816;9.930;2023-12-07T10:22:49;8.07;;;4.18;;
78209;SDS011;67485;48.816;9.930;2023-12-07T10:25:29;7.03;;;4.00;;
78209;SDS011;67485;48.816;9.930;2023-12-07T10:27:55;7.45;;;4.07;;
78209;SDS011;67485;48.816;9.930;2023-12-07T10:30:21;5.88;;;3.88;;
78209;SDS011;67485;48.816;9.930;2023-12-07T10:32:50;8.20;;;3.67;;
78209;SDS011;67485;48.816;9.930;2023-12-07T10:35:17;7.22;;;3.22;;
78209;SDS011;67485;48.816;9.930;2023-12-07T10:37:44;6.78;;;3.60;;
78209;SDS011;67485;48.816;9.930;2023-12-07T10:40:10;6.90;;;3.97;;
78209;SDS011;67485;48.816;9.930;2023-12-07T10:42:36;6.60;;;4.15;;
78209;SDS011;67485;48.816;9.930;2023-12-07T10:45:05;6.40;;;3.97;;
78209;SDS011;67485;48.816;9.930;2023-12-07T10:47:35;11.35;;;4.80;;
78209;SDS011;67485;48.816;9.930;2023-12-07T10:50:07;10.00;;;4.55;;
78209;SDS011;67485;48.816;9.930;2023-12-07T10:52:46;10.00;;;4.35;;
78209;SDS011;67485;48.816;9.930;2023-12-07T10:55:22;6.32;;;4.05;;
78209;SDS011;67485;48.816;9.930;2023-12-07T10:57:54;8.53;;;3.80;;
78209;SDS011;67485;48.816;9.930;2023-12-07T11:00:23;6.50;;;3.40;;
78209;SDS011;67485;48.816;9.930;2023-12-07T11:02:50;6.03;;;3.38;;
78209;SDS011;67485;48.816;9.930;2023-12-07T11:05:20;5.40;;;3.08;;
78209;SDS011;67485;48.816;9.930;2023-12-07T11:07:54;7.25;;;3.30;;
78209;SDS011;67485;48.816;9.930;2023-12-07T11:10:29;6.37;;;3.10;;
78209;SDS011;67485;48.816;9.930;2023-12-07T11:15:55;5.82;;;3.20;;
78209;SDS011;67485;48.816;9.930;2023-12-07T11:18:24;5.65;;;3.22;;
78209;SDS011;67485;48.816;9.930;2023-12-07T11:20:52;4.43;;;3.10;;
78209;SDS011;67485;48.816;9.930;2023-12-07T11:23:18;4.63;;;2.80;;
78209;SDS011;67485;48.816;9.930;2023-12-07T11:25:46;5.35;;;3.00;;
78209;SDS011;67485;48.816;9.930;2023-12-07T11:28:12;4.82;;;2.70;;
78209;SDS011;67485;48.816;9.930;2023-12-07T11:30:41;6.38;;;2.45;;
78209;SDS011;67485;48.816;9.930;2023-12-07T11:33:08;5.43;;;2.50;;
78209;SDS011;67485;48.816;9.930;2023-12-07T11:38:25;3.72;;;2.10;;
78209;SDS011;67485;48.816;9.930;2023-12-07T11:40:51;4.45;;;2.28;;
78209;SDS011;67485;48.816;9.930;2023-12-07T11:43:17;5.23;;;2.40;;
78209;SDS011;67485;48.816;9.930;2023-12-07T11:45:47;3.30;;;2.00;;
78209;SDS011;67485;48.816;9.930;2023-12-07T11:48:14;5.90;;;2.90;;
78209;SDS011;67485;48.816;9.930;2023-12-07T11:53:38;3.40;;;1.60;;
78209;SDS011;67485;48.816;9.930;2023-12-07T11:56:04;3.58;;;1.67;;
78209;SDS011;67485;48.816;9.930;2023-12-07T11:58:32;3.50;;;1.67;;
78209;SDS011;67485;48.816;9.930;2023-12-07T12:00:59;4.37;;;2.00;;
78209;SDS011;67485;48.816;9.930;2023-12-07T12:03:29;5.10;;;2.53;;
78209;SDS011;67485;48.816;9.930;2023-12-07T12:05:59;5.40;;;1.80;;
78209;SDS011;67485;48.816;9.930;2023-12-07T12:08:25;3.92;;;1.63;;
78209;SDS011;67485;48.816;9.930;2023-12-07T12:10:51;2.40;;;1.40;;
78209;SDS011;67485;48.816;9.930;2023-12-07T12:13:18;3.42;;;1.80;;
78209;SDS011;67485;48.816;9.930;2023-12-07T12:15:44;3.83;;;2.00;;
78209;SDS011;67485;48.816;9.930;2023-12-07T12:18:11;4.13;;;2.20;;
78209;SDS011;67485;48.816;9.930;2023-12-07T12:20:39;4.97;;;2.50;;
78209;SDS011;67485;48.816;9.930;2023-12-07T12:23:05;5.85;;;2.50;;
78209;SDS011;67485;48.816;9.930;2023-12-07T12:25:31;4.68;;;2.33;;
78209;SDS011;67485;48.816;9.930;2023-12-07T12:27:58;7.68;;;2.75;;
78209;SDS011;67485;48.816;9.930;2023-12-07T12:30:27;4.00;;;2.03;;
78209;SDS011;67485;48.816;9.930;2023-12-07T12:32:53;5.80;;;2.45;;
78209;SDS011;67485;48.816;9.930;2023-12-07T12:35:19;4.68;;;2.80;;
78209;SDS011;67485;48.816;9.930;2023-12-07T12:37:45;5.63;;;2.70;;
78209;SDS011;67485;48.816;9.930;2023-12-07T12:40:14;5.18;;;2.45;;
78209;SDS011;67485;48.816;9.930;2023-12-07T12:42:48;4.20;;;2.30;;
78209;SDS011;67485;48.816;9.930;2023-12-07T12:45:15;6.35;;;2.70;;
78209;SDS011;67485;48.816;9.930;2023-12-07T12:47:43;4.70;;;2.40;;
78209;SDS011;67485;48.816;9.930;2023-12-07T12:50:10;3.53;;;2.20;;
78209;SDS011;67485;48.816;9.930;2023-12-07T12:52:39;3.50;;;2.10;;
78209;SDS011;67485;48.816;9.930;2023-12-07T12:55:09;3.72;;;1.90;;
78209;SDS011;67485;48.816;9.930;2023-12-07T12:57:36;5.65;;;1.80;;
78209;SDS011;67485;48.816;9.930;2023-12-07T13:00:03;3.03;;;1.50;;
78209;SDS011;67485;48.816;9.930;2023-12-07T13:02:32;2.63;;;1.50;;
78209;SDS011;67485;48.816;9.930;2023-12-07T13:04:59;3.58;;;1.65;;
78209;SDS011;67485;48.816;9.930;2023-12-07T13:07:24;4.50;;;1.65;;
78209;SDS011;67485;48.816;9.930;2023-12-07T13:09:51;7.47;;;2.90;;
78209;SDS011;67485;48.816;9.930;2023-12-07T13:12:17;3.70;;;1.58;;
78209;SDS011;67485;48.816;9.930;2023-12-07T13:14:42;3.30;;;1.60;;
78209;SDS011;67485;48.816;9.930;2023-12-07T13:17:08;2.50;;;1.30;;
78209;SDS011;67485;48.816;9.930;2023-12-07T13:19:34;2.10;;;1.10;;
78209;SDS011;67485;48.816;9.930;2023-12-07T13:22:00;2.20;;;1.20;;
78209;SDS011;67485;48.816;9.930;2023-12-07T13:24:28;3.70;;;1.65;;
78209;SDS011;67485;48.816;9.930;2023-12-07T13:26:54;3.05;;;1.20;;
78209;SDS011;67485;48.816;9.930;2023-12-07T13:29:21;2.10;;;1.07;;
78209;SDS011;67485;48.816;9.930;2023-12-07T13:31:48;2.90;;;1.10;;
78209;SDS011;67485;48.816;9.930;2023-12-07T13:34:15;2.30;;;1.25;;
78209;SDS011;67485;48.816;9.930;2023-12-07T13:36:41;3.97;;;1.40;;
78209;SDS011;67485;48.816;9.930;2023-12-07T13:39:06;2.30;;;0.90;;
78209;SDS011;67485;48.816;9.930;2023-12-07T13:41:33;2.58;;;1.20;;
78209;SDS011;67485;48.816;9.930;2023-12-07T13:43:59;4.80;;;1.20;;
78209;SDS011;67485;48.816;9.930;2023-12-07T13:46:26;3.93;;;1.53;;
78209;SDS011;67485;48.816;9.930;2023-12-07T13:48:52;3.10;;;1.33;;
78209;SDS011;67485;48.816;9.930;2023-12-07T13:51:18;4.22;;;1.38;;
78209;SDS011;67485;48.816;9.930;2023-12-07T13:53:45;2.53;;;1.23;;
78209;SDS011;67485;48.816;9.930;2023-12-07T13:56:11;3.75;;;1.48;;
78209;SDS011;67485;48.816;9.930;2023-12-07T13:58:37;7.97;;;1.30;;
78209;SDS011;67485;48.816;9.930;2023-12-07T14:01:04;3.60;;;1.48;;
78209;SDS011;67485;48.816;9.930;2023-12-07T14:03:30;3.97;;;1.42;;
78209;SDS011;67485;48.816;9.930;2023-12-07T14:05:56;2.00;;;1.00;;
78209;SDS011;67485;48.816;9.930;2023-12-07T14:08:22;2.70;;;1.23;;
78209;SDS011;67485;48.816;9.930;2023-12-07T14:10:47;3.90;;;1.20;;
78209;SDS011;67485;48.816;9.930;2023-12-07T14:13:13;2.50;;;1.30;;
78209;SDS011;67485;48.816;9.930;2023-12-07T14:15:38;2.83;;;1.30;;
78209;SDS011;67485;48.816;9.930;2023-12-07T14:18:04;3.20;;;1.38;;
78209;SDS011;67485;48.816;9.930;2023-12-07T14:20:30;3.63;;;1.60;;
78209;SDS011;67485;48.816;9.930;2023-12-07T14:22:56;4.07;;;1.60;;
78209;SDS011;67485;48.816;9.930;2023-12-07T14:25:22;3.53;;;1.60;;
78209;SDS011;67485;48.816;9.930;2023-12-07T14:27:48;4.32;;;2.00;;
78209;SDS011;67485;48.816;9.930;2023-12-07T14:30:14;4.50;;;1.87;;
78209;SDS011;67485;48.816;9.930;2023-12-07T14:32:42;4.40;;;1.77;;
78209;SDS011;67485;48.816;9.930;2023-12-07T14:35:13;3.60;;;1.67;;
78209;SDS011;67485;48.816;9.930;2023-12-07T14:37:39;5.30;;;2.00;;
78209;SDS011;67485;48.816;9.930;2023-12-07T14:40:06;3.13;;;1.52;;
78209;SDS011;67485;48.816;9.930;2023-12-07T14:42:34;3.50;;;1.70;;
78209;SDS011;67485;48.816;9.930;2023-12-07T14:44:59;4.50;;;1.85;;
78209;SDS011;67485;48.816;9.930;2023-12-07T14:47:25;4.73;;;2.47;;